Detall de PIREP

Printer-friendly versionPDF version

[2010/09/26 06:50:00]
Flight IATA:CT0001
Pilot Number:041
Company ICAO:CAT
Aircraft Type:B463/A
PAX:100
Departing Airport: LEVC
Destination Airport: LEMH
Alternate Airport:LEPA
Online: VATSIM
Route:RIKOS2A A33 TURIA A33 GATOS A33 MJV2B
Flight Level:FL200
No Slew and time accel
No pause
Crash detect
Detect pilot in Cockpit between each 30 and 45 minutes
06:50 Zero fuel Weight: 81430 Lbs, Fuel Weight: 6155 Lbs
06:50 VATSIM:LEVC 260630Z 30007KT 9999 FEW040 15/08 Q1010 NOSIG
06:50 VATSIM:LEMH 260630Z 05007KT 9999 FEW018 17/13 Q1009
06:50 VOICE CATALONIAN
06:50 Parking Brakes off
06:58 Take-off
06:58 Take off Weight: 87225 Lbs
06:58 Wind: 303º @ 004 Knots Heading: 294º
06:58 POS N39º 29´ 28´´ W000º 29´ 13´´
06:58 Gear Up: 160 Knots
06:58 Flaps:1 at 160 Knots
06:59 Flaps:0 at 184 Knots
07:12 TOC
07:12 Fuel Weight: 4194 Lb
07:13 Wind:287º@029 Knots Heading: 089º Ground Speed: 356 Knots Altitude 19826 ft
07:22 TOD
07:22 Fuel Weight: 3375 Lb
07:28 Wind:279º@024 Knots Heading: 091º Ground Speed: 319 Knots Altitude 10016 ft
07:34 Flaps:1 at 226 Knots
07:43 Wind:292º@013 Knots Heading: 054º Ground Speed: 206 Knots Altitude 2998 ft
07:44 Flaps:2 at 192 Knots
07:44 Gear Down: 186 Knots
07:48 Flaps:3 at 166 Knots
07:51 TouchDown:Rate -168 ft/min Speed: 142 Knots
07:51 Flaps:0 at 128 Knots
07:52 VATSIM:LEMH 260730Z 02013KT 9999 FEW015 BKN040 16/14 Q1009
07:52 Land
07:52 Wind:051º@006 Knots
07:52 Heading: 007º
07:52 Flight Duration: 00:54
07:52 Landing Weight: 83183 Lbs
07:52 POS N39º 52´ 11´´ E004º 13´ 12´´
07:56 Parking brakes on
07:56 Block to Block Duration: 01:06
07:56 Final Fuel: 1615 Lbls
07:56 Spent Fuel: 4539 Lbls
07:56 Flight Length: 249 NM
07:56 TOD Land Length: 120 NM

Exportar CSV

Powered by Drupal - Modified by Danger4k